sensor_id;sensor_type;location;lat;lon;timestamp;temperature;humidity
40822;DHT22;26542;50.836;5.356;2023-02-08T00:01:21;0.30;99.90
40822;DHT22;26542;50.836;5.356;2023-02-08T00:03:47;0.40;99.90
40822;DHT22;26542;50.836;5.356;2023-02-08T00:06:16;0.60;99.90
40822;DHT22;26542;50.836;5.356;2023-02-08T00:08:45;0.40;99.90
40822;DHT22;26542;50.836;5.356;2023-02-08T00:11:13;0.40;99.90
40822;DHT22;26542;50.836;5.356;2023-02-08T00:13:40;0.40;99.90
40822;DHT22;26542;50.836;5.356;2023-02-08T00:16:06;0.40;99.90
40822;DHT22;26542;50.836;5.356;2023-02-08T00:18:32;0.40;99.90
40822;DHT22;26542;50.836;5.356;2023-02-08T00:20:58;0.30;99.90
40822;DHT22;26542;50.836;5.356;2023-02-08T00:23:24;0.30;99.90
40822;DHT22;26542;50.836;5.356;2023-02-08T00:25:50;0.80;99.90
40822;DHT22;26542;50.836;5.356;2023-02-08T00:28:16;0.60;99.90
40822;DHT22;26542;50.836;5.356;2023-02-08T00:30:42;0.40;99.90
40822;DHT22;26542;50.836;5.356;2023-02-08T00:33:08;0.60;99.90
40822;DHT22;26542;50.836;5.356;2023-02-08T00:35:36;0.50;99.90
40822;DHT22;26542;50.836;5.356;2023-02-08T00:38:02;0.60;99.90
40822;DHT22;26542;50.836;5.356;2023-02-08T00:40:28;0.50;99.90
40822;DHT22;26542;50.836;5.356;2023-02-08T00:42:54;0.70;99.90
40822;DHT22;26542;50.836;5.356;2023-02-08T00:45:20;0.50;99.90
40822;DHT22;26542;50.836;5.356;2023-02-08T00:47:45;0.60;99.90
40822;DHT22;26542;50.836;5.356;2023-02-08T00:50:11;0.50;99.90
40822;DHT22;26542;50.836;5.356;2023-02-08T00:52:37;0.50;99.90
40822;DHT22;26542;50.836;5.356;2023-02-08T00:55:04;0.40;99.90
40822;DHT22;26542;50.836;5.356;2023-02-08T00:57:33;0.30;99.90
40822;DHT22;26542;50.836;5.356;2023-02-08T00:59:59;0.40;99.90
40822;DHT22;26542;50.836;5.356;2023-02-08T01:02:25;0.30;99.90
40822;DHT22;26542;50.836;5.356;2023-02-08T01:04:51;0.30;99.90
40822;DHT22;26542;50.836;5.356;2023-02-08T01:07:17;0.30;99.90
40822;DHT22;26542;50.836;5.356;2023-02-08T01:09:42;0.40;99.90
40822;DHT22;26542;50.836;5.356;2023-02-08T01:12:08;0.70;99.90
40822;DHT22;26542;50.836;5.356;2023-02-08T01:14:36;0.50;99.90
40822;DHT22;26542;50.836;5.356;2023-02-08T01:17:02;0.50;99.90
40822;DHT22;26542;50.836;5.356;2023-02-08T01:19:28;0.90;99.90
40822;DHT22;26542;50.836;5.356;2023-02-08T01:21:54;0.30;99.90
40822;DHT22;26542;50.836;5.356;2023-02-08T01:24:22;0.30;99.90
40822;DHT22;26542;50.836;5.356;2023-02-08T01:26:48;0.60;99.90
40822;DHT22;26542;50.836;5.356;2023-02-08T01:29:17;0.60;99.90
40822;DHT22;26542;50.836;5.356;2023-02-08T01:31:48;0.30;99.90
40822;DHT22;26542;50.836;5.356;2023-02-08T01:34:13;0.20;99.90
40822;DHT22;26542;50.836;5.356;2023-02-08T01:36:39;0.30;99.90
40822;DHT22;26542;50.836;5.356;2023-02-08T01:39:10;0.10;99.90
40822;DHT22;26542;50.836;5.356;2023-02-08T01:41:40;0.00;99.90
40822;DHT22;26542;50.836;5.356;2023-02-08T01:46:48;-0.10;99.90
40822;DHT22;26542;50.836;5.356;2023-02-08T01:54:35;0.00;99.90
40822;DHT22;26542;50.836;5.356;2023-02-08T01:57:01;-0.20;99.90
40822;DHT22;26542;50.836;5.356;2023-02-08T02:00:00;-0.20;99.90
40822;DHT22;26542;50.836;5.356;2023-02-08T02:02:27;-0.20;99.90
40822;DHT22;26542;50.836;5.356;2023-02-08T02:04:53;0.10;99.90
40822;DHT22;26542;50.836;5.356;2023-02-08T02:07:21;-0.40;99.90
40822;DHT22;26542;50.836;5.356;2023-02-08T02:09:54;0.00;99.90
40822;DHT22;26542;50.836;5.356;2023-02-08T02:12:24;-0.30;99.90
40822;DHT22;26542;50.836;5.356;2023-02-08T02:14:53;0.00;99.90
40822;DHT22;26542;50.836;5.356;2023-02-08T02:17:21;-0.40;99.90
40822;DHT22;26542;50.836;5.356;2023-02-08T02:20:05;0.00;99.90
40822;DHT22;26542;50.836;5.356;2023-02-08T02:41:48;-0.70;99.90
40822;DHT22;26542;50.836;5.356;2023-02-08T02:49:53;-0.80;99.90
40822;DHT22;26542;50.836;5.356;2023-02-08T02:52:49;-0.90;99.90
40822;DHT22;26542;50.836;5.356;2023-02-08T02:55:16;-0.90;99.90
40822;DHT22;26542;50.836;5.356;2023-02-08T02:57:46;-1.00;99.90
40822;DHT22;26542;50.836;5.356;2023-02-08T03:00:20;-1.00;99.90
40822;DHT22;26542;50.836;5.356;2023-02-08T03:02:46;-1.10;99.90
40822;DHT22;26542;50.836;5.356;2023-02-08T03:05:12;-1.00;99.90
40822;DHT22;26542;50.836;5.356;2023-02-08T03:14:08;-1.00;99.90
40822;DHT22;26542;50.836;5.356;2023-02-08T03:20:07;-1.10;99.90
40822;DHT22;26542;50.836;5.356;2023-02-08T03:33:52;-1.20;99.90
40822;DHT22;26542;50.836;5.356;2023-02-08T03:36:24;-1.20;99.90
40822;DHT22;26542;50.836;5.356;2023-02-08T03:38:53;-0.80;99.90
40822;DHT22;26542;50.836;5.356;2023-02-08T03:41:29;-1.30;99.90
40822;DHT22;26542;50.836;5.356;2023-02-08T03:44:01;-1.00;99.90
40822;DHT22;26542;50.836;5.356;2023-02-08T03:46:32;-1.30;99.90
40822;DHT22;26542;50.836;5.356;2023-02-08T03:49:04;-1.30;99.90
40822;DHT22;26542;50.836;5.356;2023-02-08T03:51:35;-1.40;99.90
40822;DHT22;26542;50.836;5.356;2023-02-08T03:54:06;-1.40;99.90
40822;DHT22;26542;50.836;5.356;2023-02-08T03:57:00;-0.50;99.90
40822;DHT22;26542;50.836;5.356;2023-02-08T03:59:31;-1.40;99.90
40822;DHT22;26542;50.836;5.356;2023-02-08T04:02:01;-1.40;99.90
40822;DHT22;26542;50.836;5.356;2023-02-08T04:04:33;-1.50;99.90
40822;DHT22;26542;50.836;5.356;2023-02-08T04:07:02;-1.40;99.90
40822;DHT22;26542;50.836;5.356;2023-02-08T04:09:27;-0.70;99.90
40822;DHT22;26542;50.836;5.356;2023-02-08T04:11:53;-1.40;99.90
40822;DHT22;26542;50.836;5.356;2023-02-08T04:14:19;-1.50;99.90
40822;DHT22;26542;50.836;5.356;2023-02-08T04:16:44;-1.60;99.90
40822;DHT22;26542;50.836;5.356;2023-02-08T04:19:12;-1.50;99.90
40822;DHT22;26542;50.836;5.356;2023-02-08T04:21:38;-1.50;99.90
40822;DHT22;26542;50.836;5.356;2023-02-08T04:24:08;-1.70;99.90
40822;DHT22;26542;50.836;5.356;2023-02-08T04:26:34;-1.70;99.90
40822;DHT22;26542;50.836;5.356;2023-02-08T04:29:00;-1.80;99.90
40822;DHT22;26542;50.836;5.356;2023-02-08T04:31:26;-1.80;99.90
40822;DHT22;26542;50.836;5.356;2023-02-08T04:33:51;-1.70;99.90
40822;DHT22;26542;50.836;5.356;2023-02-08T04:36:19;-1.70;99.90
40822;DHT22;26542;50.836;5.356;2023-02-08T04:38:47;-1.70;99.90
40822;DHT22;26542;50.836;5.356;2023-02-08T04:41:17;-1.70;99.90
40822;DHT22;26542;50.836;5.356;2023-02-08T04:43:45;-1.80;99.90
40822;DHT22;26542;50.836;5.356;2023-02-08T04:46:11;-1.90;99.90
40822;DHT22;26542;50.836;5.356;2023-02-08T04:48:39;-1.90;99.90
40822;DHT22;26542;50.836;5.356;2023-02-08T04:51:05;-1.40;99.90
40822;DHT22;26542;50.836;5.356;2023-02-08T04:53:33;-1.90;99.90
40822;DHT22;26542;50.836;5.356;2023-02-08T04:56:01;-1.90;99.90
40822;DHT22;26542;50.836;5.356;2023-02-08T04:58:29;-1.80;99.90
40822;DHT22;26542;50.836;5.356;2023-02-08T05:00:54;-1.40;99.90
40822;DHT22;26542;50.836;5.356;2023-02-08T05:03:22;-1.80;99.90
40822;DHT22;26542;50.836;5.356;2023-02-08T05:05:56;-1.60;99.90
40822;DHT22;26542;50.836;5.356;2023-02-08T05:08:22;-1.40;99.90
40822;DHT22;26542;50.836;5.356;2023-02-08T05:10:48;-1.60;99.90
40822;DHT22;26542;50.836;5.356;2023-02-08T05:13:13;-1.60;99.90
40822;DHT22;26542;50.836;5.356;2023-02-08T05:15:39;-2.10;99.90
40822;DHT22;26542;50.836;5.356;2023-02-08T05:18:07;-2.10;99.90
40822;DHT22;26542;50.836;5.356;2023-02-08T05:20:33;-2.10;99.90
40822;DHT22;26542;50.836;5.356;2023-02-08T05:22:58;-1.60;99.90
40822;DHT22;26542;50.836;5.356;2023-02-08T05:25:24;-1.70;99.90
40822;DHT22;26542;50.836;5.356;2023-02-08T05:27:50;-1.90;99.90
40822;DHT22;26542;50.836;5.356;2023-02-08T05:30:18;-2.20;99.90
40822;DHT22;26542;50.836;5.356;2023-02-08T05:32:48;-2.20;99.90
40822;DHT22;26542;50.836;5.356;2023-02-08T05:35:18;-2.30;99.90
40822;DHT22;26542;50.836;5.356;2023-02-08T05:37:43;-1.60;99.90
40822;DHT22;26542;50.836;5.356;2023-02-08T05:40:10;-1.60;99.90
40822;DHT22;26542;50.836;5.356;2023-02-08T05:42:37;-2.20;99.90
40822;DHT22;26542;50.836;5.356;2023-02-08T05:45:04;-2.20;99.90
40822;DHT22;26542;50.836;5.356;2023-02-08T05:47:30;-2.20;99.90
40822;DHT22;26542;50.836;5.356;2023-02-08T05:49:55;-2.30;99.90
40822;DHT22;26542;50.836;5.356;2023-02-08T05:52:21;-2.20;99.90
40822;DHT22;26542;50.836;5.356;2023-02-08T05:54:46;-2.20;99.90
40822;DHT22;26542;50.836;5.356;2023-02-08T05:57:12;-2.30;99.90
40822;DHT22;26542;50.836;5.356;2023-02-08T05:59:38;-1.60;99.90
40822;DHT22;26542;50.836;5.356;2023-02-08T06:02:03;-2.30;99.90
40822;DHT22;26542;50.836;5.356;2023-02-08T06:04:29;-2.30;99.90
40822;DHT22;26542;50.836;5.356;2023-02-08T06:06:57;-1.70;99.90
40822;DHT22;26542;50.836;5.356;2023-02-08T06:09:23;-1.60;99.90
40822;DHT22;26542;50.836;5.356;2023-02-08T06:11:48;-2.40;99.90
40822;DHT22;26542;50.836;5.356;2023-02-08T06:14:17;-2.00;99.90
40822;DHT22;26542;50.836;5.356;2023-02-08T06:16:42;-2.40;99.90
40822;DHT22;26542;50.836;5.356;2023-02-08T06:19:08;-1.60;99.90
40822;DHT22;26542;50.836;5.356;2023-02-08T06:21:37;-2.30;99.90
40822;DHT22;26542;50.836;5.356;2023-02-08T06:24:03;-2.50;99.90
40822;DHT22;26542;50.836;5.356;2023-02-08T06:26:31;-2.40;99.90
40822;DHT22;26542;50.836;5.356;2023-02-08T06:28:58;-2.40;99.90
40822;DHT22;26542;50.836;5.356;2023-02-08T06:31:24;-2.30;99.90
40822;DHT22;26542;50.836;5.356;2023-02-08T06:33:50;-2.00;99.90
40822;DHT22;26542;50.836;5.356;2023-02-08T06:36:18;-2.40;99.90
40822;DHT22;26542;50.836;5.356;2023-02-08T06:38:44;-2.30;99.90
40822;DHT22;26542;50.836;5.356;2023-02-08T06:41:09;-2.20;99.90
40822;DHT22;26542;50.836;5.356;2023-02-08T06:43:37;-1.80;99.90
40822;DHT22;26542;50.836;5.356;2023-02-08T06:46:04;-2.00;99.90
40822;DHT22;26542;50.836;5.356;2023-02-08T06:48:38;-2.50;99.90
40822;DHT22;26542;50.836;5.356;2023-02-08T06:51:03;-2.40;99.90
40822;DHT22;26542;50.836;5.356;2023-02-08T06:53:31;-2.40;99.90
40822;DHT22;26542;50.836;5.356;2023-02-08T06:56:00;-1.90;99.90
40822;DHT22;26542;50.836;5.356;2023-02-08T06:58:27;-2.40;99.90
40822;DHT22;26542;50.836;5.356;2023-02-08T07:00:53;-2.40;99.90
40822;DHT22;26542;50.836;5.356;2023-02-08T07:03:19;-2.40;99.90
40822;DHT22;26542;50.836;5.356;2023-02-08T07:05:46;-2.20;99.90
40822;DHT22;26542;50.836;5.356;2023-02-08T07:08:12;-2.50;99.90
40822;DHT22;26542;50.836;5.356;2023-02-08T07:10:38;-2.00;99.90
40822;DHT22;26542;50.836;5.356;2023-02-08T07:13:09;-2.20;99.90
40822;DHT22;26542;50.836;5.356;2023-02-08T07:15:35;-2.50;99.90
40822;DHT22;26542;50.836;5.356;2023-02-08T07:18:00;-2.50;99.90
40822;DHT22;26542;50.836;5.356;2023-02-08T07:20:26;-2.50;99.90
40822;DHT22;26542;50.836;5.356;2023-02-08T07:22:52;-1.90;99.90
40822;DHT22;26542;50.836;5.356;2023-02-08T07:25:20;-2.50;99.90
40822;DHT22;26542;50.836;5.356;2023-02-08T07:27:45;-2.50;99.90
40822;DHT22;26542;50.836;5.356;2023-02-08T07:30:11;-2.50;99.90
40822;DHT22;26542;50.836;5.356;2023-02-08T07:32:39;-2.50;99.90
40822;DHT22;26542;50.836;5.356;2023-02-08T07:35:05;-2.40;99.90
40822;DHT22;26542;50.836;5.356;2023-02-08T07:37:31;-2.40;99.90
40822;DHT22;26542;50.836;5.356;2023-02-08T07:39:57;-2.40;99.90
40822;DHT22;26542;50.836;5.356;2023-02-08T07:42:26;-2.30;99.90
40822;DHT22;26542;50.836;5.356;2023-02-08T07:44:52;-1.50;99.90
40822;DHT22;26542;50.836;5.356;2023-02-08T07:47:17;-1.80;99.90
40822;DHT22;26542;50.836;5.356;2023-02-08T07:49:43;-1.50;99.90
40822;DHT22;26542;50.836;5.356;2023-02-08T07:52:08;-2.40;99.90
40822;DHT22;26542;50.836;5.356;2023-02-08T07:54:37;-2.30;99.90
40822;DHT22;26542;50.836;5.356;2023-02-08T07:57:05;-2.30;99.90
40822;DHT22;26542;50.836;5.356;2023-02-08T07:59:30;-2.20;99.90
40822;DHT22;26542;50.836;5.356;2023-02-08T08:01:58;-2.20;99.90
40822;DHT22;26542;50.836;5.356;2023-02-08T08:04:24;-2.20;99.90
40822;DHT22;26542;50.836;5.356;2023-02-08T08:06:50;-2.20;99.90
40822;DHT22;26542;50.836;5.356;2023-02-08T08:09:15;-2.00;99.90
40822;DHT22;26542;50.836;5.356;2023-02-08T08:11:44;-1.90;99.90
40822;DHT22;26542;50.836;5.356;2023-02-08T08:14:12;-1.40;99.90
40822;DHT22;26542;50.836;5.356;2023-02-08T08:16:40;-1.20;99.90
40822;DHT22;26542;50.836;5.356;2023-02-08T08:19:08;-1.70;99.90
40822;DHT22;26542;50.836;5.356;2023-02-08T08:21:33;-1.70;99.90
40822;DHT22;26542;50.836;5.356;2023-02-08T08:24:01;-1.10;99.90
40822;DHT22;26542;50.836;5.356;2023-02-08T08:26:29;-1.50;99.90
40822;DHT22;26542;50.836;5.356;2023-02-08T08:28:57;-1.40;99.90
40822;DHT22;26542;50.836;5.356;2023-02-08T08:31:27;-1.30;99.90
40822;DHT22;26542;50.836;5.356;2023-02-08T08:33:55;-1.20;99.90
40822;DHT22;26542;50.836;5.356;2023-02-08T08:36:20;-1.10;99.90
40822;DHT22;26542;50.836;5.356;2023-02-08T08:38:46;-0.80;99.90
40822;DHT22;26542;50.836;5.356;2023-02-08T08:41:14;-0.90;99.90
40822;DHT22;26542;50.836;5.356;2023-02-08T08:43:44;-0.80;99.90
40822;DHT22;26542;50.836;5.356;2023-02-08T08:46:09;-0.60;99.90
40822;DHT22;26542;50.836;5.356;2023-02-08T08:48:36;-0.60;99.90
40822;DHT22;26542;50.836;5.356;2023-02-08T08:51:03;-0.40;99.90
40822;DHT22;26542;50.836;5.356;2023-02-08T08:53:32;-0.20;99.90
40822;DHT22;26542;50.836;5.356;2023-02-08T08:56:01;-0.10;99.90
40822;DHT22;26542;50.836;5.356;2023-02-08T08:58:27;0.00;99.90
40822;DHT22;26542;50.836;5.356;2023-02-08T09:01:01;0.10;99.90
40822;DHT22;26542;50.836;5.356;2023-02-08T09:03:29;0.20;99.90
40822;DHT22;26542;50.836;5.356;2023-02-08T09:05:55;0.40;99.90
40822;DHT22;26542;50.836;5.356;2023-02-08T09:08:23;0.70;99.90
40822;DHT22;26542;50.836;5.356;2023-02-08T09:10:48;0.90;99.90
40822;DHT22;26542;50.836;5.356;2023-02-08T09:13:14;1.10;99.90
40822;DHT22;26542;50.836;5.356;2023-02-08T09:15:44;1.20;99.90
40822;DHT22;26542;50.836;5.356;2023-02-08T09:18:10;1.20;99.90
40822;DHT22;26542;50.836;5.356;2023-02-08T09:20:39;1.30;99.90
40822;DHT22;26542;50.836;5.356;2023-02-08T09:23:05;1.40;99.90
40822;DHT22;26542;50.836;5.356;2023-02-08T09:25:30;2.10;99.90
40822;DHT22;26542;50.836;5.356;2023-02-08T09:27:57;1.60;99.90
40822;DHT22;26542;50.836;5.356;2023-02-08T09:30:23;1.80;99.90
40822;DHT22;26542;50.836;5.356;2023-02-08T09:32:53;2.10;99.90
40822;DHT22;26542;50.836;5.356;2023-02-08T09:35:21;2.30;99.90
40822;DHT22;26542;50.836;5.356;2023-02-08T09:37:52;2.70;99.90
40822;DHT22;26542;50.836;5.356;2023-02-08T09:40:40;2.60;99.90
40822;DHT22;26542;50.836;5.356;2023-02-08T09:43:17;2.80;99.90
40822;DHT22;26542;50.836;5.356;2023-02-08T09:45:50;3.00;99.90
40822;DHT22;26542;50.836;5.356;2023-02-08T09:48:30;3.10;99.90
40822;DHT22;26542;50.836;5.356;2023-02-08T09:53:33;3.20;99.90
40822;DHT22;26542;50.836;5.356;2023-02-08T09:56:03;3.30;99.90
40822;DHT22;26542;50.836;5.356;2023-02-08T09:58:36;3.40;99.90
40822;DHT22;26542;50.836;5.356;2023-02-08T10:01:11;3.50;99.90
40822;DHT22;26542;50.836;5.356;2023-02-08T10:03:42;3.70;99.90
40822;DHT22;26542;50.836;5.356;2023-02-08T10:06:14;3.80;99.90
40822;DHT22;26542;50.836;5.356;2023-02-08T10:08:42;3.90;99.90
40822;DHT22;26542;50.836;5.356;2023-02-08T10:16:52;4.50;99.90
40822;DHT22;26542;50.836;5.356;2023-02-08T10:25:01;4.80;99.90
40822;DHT22;26542;50.836;5.356;2023-02-08T10:27:45;4.90;99.90
40822;DHT22;26542;50.836;5.356;2023-02-08T10:35:54;5.40;97.70
40822;DHT22;26542;50.836;5.356;2023-02-08T10:38:24;5.40;96.50
40822;DHT22;26542;50.836;5.356;2023-02-08T10:40:54;5.50;96.00
40822;DHT22;26542;50.836;5.356;2023-02-08T10:43:29;5.60;95.90
40822;DHT22;26542;50.836;5.356;2023-02-08T10:51:18;5.90;94.30
40822;DHT22;26542;50.836;5.356;2023-02-08T10:53:44;6.00;94.20
40822;DHT22;26542;50.836;5.356;2023-02-08T10:59:12;6.30;92.70
40822;DHT22;26542;50.836;5.356;2023-02-08T11:01:39;6.30;92.20
40822;DHT22;26542;50.836;5.356;2023-02-08T11:04:05;6.40;92.30
40822;DHT22;26542;50.836;5.356;2023-02-08T11:06:31;6.70;91.10
40822;DHT22;26542;50.836;5.356;2023-02-08T11:08:57;6.70;91.40
40822;DHT22;26542;50.836;5.356;2023-02-08T11:11:26;6.80;88.00
40822;DHT22;26542;50.836;5.356;2023-02-08T11:13:52;6.80;87.90
40822;DHT22;26542;50.836;5.356;2023-02-08T11:16:31;6.80;90.20
40822;DHT22;26542;50.836;5.356;2023-02-08T11:18:59;6.90;86.80
40822;DHT22;26542;50.836;5.356;2023-02-08T11:21:38;6.90;87.20
40822;DHT22;26542;50.836;5.356;2023-02-08T11:24:29;7.10;85.50
40822;DHT22;26542;50.836;5.356;2023-02-08T11:27:00;7.30;85.20
40822;DHT22;26542;50.836;5.356;2023-02-08T11:29:28;7.40;84.40
40822;DHT22;26542;50.836;5.356;2023-02-08T11:31:56;7.50;87.80
40822;DHT22;26542;50.836;5.356;2023-02-08T11:34:30;7.50;89.40
40822;DHT22;26542;50.836;5.356;2023-02-08T11:37:12;7.50;90.90
40822;DHT22;26542;50.836;5.356;2023-02-08T11:39:41;7.60;90.10
40822;DHT22;26542;50.836;5.356;2023-02-08T11:42:36;7.70;89.80
40822;DHT22;26542;50.836;5.356;2023-02-08T11:45:05;7.70;86.30
40822;DHT22;26542;50.836;5.356;2023-02-08T11:47:36;7.70;82.60
40822;DHT22;26542;50.836;5.356;2023-02-08T11:50:07;7.90;82.00
40822;DHT22;26542;50.836;5.356;2023-02-08T11:52:40;7.90;77.50
40822;DHT22;26542;50.836;5.356;2023-02-08T11:55:33;7.90;78.20
40822;DHT22;26542;50.836;5.356;2023-02-08T11:58:19;8.00;79.80
40822;DHT22;26542;50.836;5.356;2023-02-08T12:00:59;8.10;78.70
40822;DHT22;26542;50.836;5.356;2023-02-08T12:03:46;8.10;80.70
40822;DHT22;26542;50.836;5.356;2023-02-08T12:09:02;8.30;80.20
40822;DHT22;26542;50.836;5.356;2023-02-08T12:11:47;8.30;77.60
40822;DHT22;26542;50.836;5.356;2023-02-08T12:23:12;8.70;77.70
40822;DHT22;26542;50.836;5.356;2023-02-08T12:28:26;8.70;78.10
40822;DHT22;26542;50.836;5.356;2023-02-08T12:36:30;8.90;77.70
40822;DHT22;26542;50.836;5.356;2023-02-08T12:50:21;9.50;76.90
40822;DHT22;26542;50.836;5.356;2023-02-08T12:52:59;9.50;73.20
40822;DHT22;26542;50.836;5.356;2023-02-08T12:55:37;9.60;75.40
40822;DHT22;26542;50.836;5.356;2023-02-08T12:58:27;9.60;76.60
40822;DHT22;26542;50.836;5.356;2023-02-08T13:00:55;9.70;75.90
40822;DHT22;26542;50.836;5.356;2023-02-08T13:06:07;9.80;74.50
40822;DHT22;26542;50.836;5.356;2023-02-08T13:08:58;9.90;73.30
40822;DHT22;26542;50.836;5.356;2023-02-08T13:11:31;10.00;71.40
40822;DHT22;26542;50.836;5.356;2023-02-08T13:16:51;10.00;71.10
40822;DHT22;26542;50.836;5.356;2023-02-08T13:19:45;10.00;71.20
40822;DHT22;26542;50.836;5.356;2023-02-08T13:22:13;10.20;69.30
40822;DHT22;26542;50.836;5.356;2023-02-08T13:24:42;10.10;70.10
40822;DHT22;26542;50.836;5.356;2023-02-08T13:27:16;10.20;70.40
40822;DHT22;26542;50.836;5.356;2023-02-08T13:29:50;10.30;71.50
40822;DHT22;26542;50.836;5.356;2023-02-08T13:32:30;10.30;70.80
40822;DHT22;26542;50.836;5.356;2023-02-08T13:35:06;10.30;71.50
40822;DHT22;26542;50.836;5.356;2023-02-08T13:37:36;10.30;72.20
40822;DHT22;26542;50.836;5.356;2023-02-08T13:40:17;10.30;72.20
40822;DHT22;26542;50.836;5.356;2023-02-08T13:43:06;10.40;71.80
40822;DHT22;26542;50.836;5.356;2023-02-08T13:45:41;10.40;68.30
40822;DHT22;26542;50.836;5.356;2023-02-08T13:48:15;10.30;69.00
40822;DHT22;26542;50.836;5.356;2023-02-08T13:50:55;10.30;70.50
40822;DHT22;26542;50.836;5.356;2023-02-08T14:02:21;10.90;67.30
40822;DHT22;26542;50.836;5.356;2023-02-08T14:04:50;10.90;68.80
40822;DHT22;26542;50.836;5.356;2023-02-08T14:10:21;11.00;70.10
40822;DHT22;26542;50.836;5.356;2023-02-08T14:15:32;11.20;68.80
40822;DHT22;26542;50.836;5.356;2023-02-08T14:18:00;11.30;68.90
40822;DHT22;26542;50.836;5.356;2023-02-08T14:20:40;11.30;68.60
40822;DHT22;26542;50.836;5.356;2023-02-08T14:23:24;11.40;68.60
40822;DHT22;26542;50.836;5.356;2023-02-08T14:25:52;11.40;66.40
40822;DHT22;26542;50.836;5.356;2023-02-08T14:28:32;11.30;66.50
40822;DHT22;26542;50.836;5.356;2023-02-08T14:31:03;11.20;66.70
40822;DHT22;26542;50.836;5.356;2023-02-08T14:33:37;11.10;66.40
40822;DHT22;26542;50.836;5.356;2023-02-08T14:36:13;11.10;65.00
40822;DHT22;26542;50.836;5.356;2023-02-08T14:41:45;11.00;65.50
40822;DHT22;26542;50.836;5.356;2023-02-08T14:50:15;11.10;61.50
40822;DHT22;26542;50.836;5.356;2023-02-08T14:52:46;11.10;64.30
40822;DHT22;26542;50.836;5.356;2023-02-08T14:55:23;11.10;63.40
40822;DHT22;26542;50.836;5.356;2023-02-08T14:57:58;11.20;62.80
40822;DHT22;26542;50.836;5.356;2023-02-08T15:00:29;11.10;63.00
40822;DHT22;26542;50.836;5.356;2023-02-08T15:02:57;11.00;64.90
40822;DHT22;26542;50.836;5.356;2023-02-08T15:05:36;11.10;63.80
40822;DHT22;26542;50.836;5.356;2023-02-08T15:08:05;11.00;65.00
40822;DHT22;26542;50.836;5.356;2023-02-08T15:10:32;11.00;64.80
40822;DHT22;26542;50.836;5.356;2023-02-08T15:13:03;11.00;65.40
40822;DHT22;26542;50.836;5.356;2023-02-08T15:15:37;10.90;67.00
40822;DHT22;26542;50.836;5.356;2023-02-08T15:18:04;10.90;67.00
40822;DHT22;26542;50.836;5.356;2023-02-08T15:20:33;10.90;67.60
40822;DHT22;26542;50.836;5.356;2023-02-08T15:23:21;11.00;69.50
40822;DHT22;26542;50.836;5.356;2023-02-08T15:25:59;11.00;69.40
40822;DHT22;26542;50.836;5.356;2023-02-08T15:28:28;11.10;69.80
40822;DHT22;26542;50.836;5.356;2023-02-08T15:31:17;11.10;69.60
40822;DHT22;26542;50.836;5.356;2023-02-08T15:33:42;11.10;68.30
40822;DHT22;26542;50.836;5.356;2023-02-08T15:38:47;11.00;70.20
40822;DHT22;26542;50.836;5.356;2023-02-08T15:41:22;11.00;71.00
40822;DHT22;26542;50.836;5.356;2023-02-08T15:43:48;11.00;71.70
40822;DHT22;26542;50.836;5.356;2023-02-08T15:46:24;10.90;71.00
40822;DHT22;26542;50.836;5.356;2023-02-08T15:48:53;10.90;69.30
40822;DHT22;26542;50.836;5.356;2023-02-08T15:51:22;10.80;70.30
40822;DHT22;26542;50.836;5.356;2023-02-08T15:53:52;10.80;69.20
40822;DHT22;26542;50.836;5.356;2023-02-08T15:56:28;10.80;69.40
40822;DHT22;26542;50.836;5.356;2023-02-08T15:59:00;10.70;68.30
40822;DHT22;26542;50.836;5.356;2023-02-08T16:01:28;10.60;69.20
40822;DHT22;26542;50.836;5.356;2023-02-08T16:04:01;10.40;69.30
40822;DHT22;26542;50.836;5.356;2023-02-08T16:06:44;10.40;69.80
40822;DHT22;26542;50.836;5.356;2023-02-08T16:09:18;10.30;71.30
40822;DHT22;26542;50.836;5.356;2023-02-08T16:11:47;10.20;74.30
40822;DHT22;26542;50.836;5.356;2023-02-08T16:14:20;10.10;75.20
40822;DHT22;26542;50.836;5.356;2023-02-08T16:16:50;10.00;76.40
40822;DHT22;26542;50.836;5.356;2023-02-08T16:19:31;9.90;76.80
40822;DHT22;26542;50.836;5.356;2023-02-08T16:22:27;9.90;78.10
40822;DHT22;26542;50.836;5.356;2023-02-08T16:28:29;9.60;79.10
40822;DHT22;26542;50.836;5.356;2023-02-08T16:31:02;9.40;80.20
40822;DHT22;26542;50.836;5.356;2023-02-08T16:33:30;9.30;80.30
40822;DHT22;26542;50.836;5.356;2023-02-08T16:35:57;9.20;80.40
40822;DHT22;26542;50.836;5.356;2023-02-08T16:38:30;9.00;81.80
40822;DHT22;26542;50.836;5.356;2023-02-08T16:40:57;8.90;81.30
40822;DHT22;26542;50.836;5.356;2023-02-08T16:43:38;8.70;82.40
40822;DHT22;26542;50.836;5.356;2023-02-08T16:51:12;8.30;83.80
40822;DHT22;26542;50.836;5.356;2023-02-08T16:53:40;7.90;84.90
40822;DHT22;26542;50.836;5.356;2023-02-08T16:56:09;7.70;85.20
40822;DHT22;26542;50.836;5.356;2023-02-08T16:58:38;7.60;85.10
40822;DHT22;26542;50.836;5.356;2023-02-08T17:01:11;7.50;84.50
40822;DHT22;26542;50.836;5.356;2023-02-08T17:03:40;7.30;86.20
40822;DHT22;26542;50.836;5.356;2023-02-08T17:06:09;7.10;87.20
40822;DHT22;26542;50.836;5.356;2023-02-08T17:08:40;7.00;87.50
40822;DHT22;26542;50.836;5.356;2023-02-08T17:11:08;6.80;88.30
40822;DHT22;26542;50.836;5.356;2023-02-08T17:13:34;6.60;88.60
40822;DHT22;26542;50.836;5.356;2023-02-08T17:15:59;6.50;88.30
40822;DHT22;26542;50.836;5.356;2023-02-08T17:18:25;6.30;88.60
40822;DHT22;26542;50.836;5.356;2023-02-08T17:20:51;6.20;89.30
40822;DHT22;26542;50.836;5.356;2023-02-08T17:23:26;6.10;89.90
40822;DHT22;26542;50.836;5.356;2023-02-08T17:25:52;5.90;90.30
40822;DHT22;26542;50.836;5.356;2023-02-08T17:28:19;5.90;90.50
40822;DHT22;26542;50.836;5.356;2023-02-08T17:30:46;5.80;90.50
40822;DHT22;26542;50.836;5.356;2023-02-08T17:33:15;5.70;90.50
40822;DHT22;26542;50.836;5.356;2023-02-08T17:35:49;5.70;90.70
40822;DHT22;26542;50.836;5.356;2023-02-08T17:38:19;5.60;90.50
40822;DHT22;26542;50.836;5.356;2023-02-08T17:40:45;5.50;90.50
40822;DHT22;26542;50.836;5.356;2023-02-08T17:43:11;5.40;90.60
40822;DHT22;26542;50.836;5.356;2023-02-08T17:45:39;5.30;90.80
40822;DHT22;26542;50.836;5.356;2023-02-08T17:48:06;5.30;91.10
40822;DHT22;26542;50.836;5.356;2023-02-08T17:50:33;5.30;91.40
40822;DHT22;26542;50.836;5.356;2023-02-08T17:52:58;5.10;91.20
40822;DHT22;26542;50.836;5.356;2023-02-08T17:55:24;5.00;91.90
40822;DHT22;26542;50.836;5.356;2023-02-08T17:57:52;4.90;92.10
40822;DHT22;26542;50.836;5.356;2023-02-08T18:00:20;4.90;92.10
40822;DHT22;26542;50.836;5.356;2023-02-08T18:02:48;4.80;92.20
40822;DHT22;26542;50.836;5.356;2023-02-08T18:05:15;4.70;92.50
40822;DHT22;26542;50.836;5.356;2023-02-08T18:07:41;4.60;92.90
40822;DHT22;26542;50.836;5.356;2023-02-08T18:10:08;4.60;93.10
40822;DHT22;26542;50.836;5.356;2023-02-08T18:12:37;4.50;93.20
40822;DHT22;26542;50.836;5.356;2023-02-08T18:15:05;4.40;93.40
40822;DHT22;26542;50.836;5.356;2023-02-08T18:17:31;4.30;93.60
40822;DHT22;26542;50.836;5.356;2023-02-08T18:19:57;4.20;93.80
40822;DHT22;26542;50.836;5.356;2023-02-08T18:22:24;4.20;94.00
40822;DHT22;26542;50.836;5.356;2023-02-08T18:24:50;4.10;94.20
40822;DHT22;26542;50.836;5.356;2023-02-08T18:27:16;4.10;94.20